createdAt,value
2016-10-12T00:00:40.043Z,77.37
2016-10-12T00:01:40.005Z,77.94
2016-10-12T00:02:39.971Z,77.84
2016-10-12T00:03:39.927Z,77.75
2016-10-12T00:04:39.592Z,78.13
2016-10-12T00:05:39.850Z,78.61
2016-10-12T00:06:39.810Z,78.89
2016-10-12T00:07:39.771Z,78.8
2016-10-12T00:08:39.731Z,78.51
2016-10-12T00:09:39.693Z,78.61
2016-10-12T00:10:39.654Z,78.99
2016-10-12T00:11:39.613Z,78.61
2016-10-12T00:12:39.578Z,78.7
2016-10-12T00:13:39.535Z,78.99
2016-10-12T00:14:39.498Z,78.89
2016-10-12T00:15:39.460Z,78.8
2016-10-12T00:16:39.423Z,78.51
2016-10-12T00:17:39.382Z,78.32
2016-10-12T00:18:39.039Z,77.66
2016-10-12T00:19:39.305Z,77.94
2016-10-12T00:20:39.263Z,77.94
2016-10-12T00:21:39.225Z,77.94
2016-10-12T00:22:38.883Z,77.75
2016-10-12T00:23:38.846Z,77.94
2016-10-12T00:24:39.106Z,77.75
2016-10-12T00:25:39.067Z,77.84
2016-10-12T00:26:39.030Z,78.42
2016-10-12T00:27:38.993Z,78.42
2016-10-12T00:28:38.950Z,78.7
2016-10-12T00:29:38.920Z,78.61
2016-10-12T00:30:38.878Z,78.42
2016-10-12T00:31:38.531Z,78.32
2016-10-12T00:32:38.798Z,78.23
2016-10-12T00:33:38.460Z,78.13
2016-10-12T00:34:38.416Z,77.75
2016-10-12T00:35:38.680Z,77.84
2016-10-12T00:36:38.640Z,78.03
2016-10-12T00:37:38.298Z,78.42
2016-10-12T00:38:38.561Z,78.61
2016-10-12T00:39:38.523Z,78.42
2016-10-12T00:40:38.482Z,78.89
2016-10-12T00:41:38.443Z,78.42
2016-10-12T00:42:38.406Z,78.32
2016-10-12T00:43:38.366Z,78.03
2016-10-12T00:44:38.328Z,77.84
2016-10-12T00:45:38.286Z,77.84
2016-10-12T00:46:38.246Z,77.84
2016-10-12T00:47:38.207Z,77.94
2016-10-12T00:48:38.173Z,78.03
2016-10-12T00:49:38.133Z,78.13
2016-10-12T00:50:38.094Z,77.18
2016-10-12T00:51:37.752Z,77.56
2016-10-12T00:52:38.015Z,78.03
2016-10-12T00:53:37.976Z,77.94
2016-10-12T00:54:37.636Z,77.75
2016-10-12T00:55:37.596Z,77.56
2016-10-12T00:56:37.860Z,77.18
2016-10-12T00:57:37.817Z,76.99
2016-10-12T00:58:37.779Z,77.09
2016-10-12T00:59:37.762Z,76.61
2016-10-12T01:00:37.704Z,76.8
2016-10-12T01:01:37.662Z,77.18
2016-10-12T01:02:37.624Z,76.9
2016-10-12T01:03:37.585Z,76.8
2016-10-12T01:04:37.546Z,77.37
2016-10-12T01:05:37.506Z,77.47
2016-10-12T01:06:37.467Z,77.37
2016-10-12T01:07:37.427Z,78.23
2016-10-12T01:08:37.392Z,77.94
2016-10-12T01:09:37.350Z,77.66
2016-10-12T01:10:37.310Z,78.13
2016-10-12T01:11:37.270Z,78.42
2016-10-12T01:12:37.233Z,78.23
2016-10-12T01:13:37.191Z,78.51
2016-10-12T01:14:37.154Z,78.23
2016-10-12T01:15:37.115Z,78.32
2016-10-12T01:16:37.078Z,78.32
2016-10-12T01:17:37.037Z,78.51
2016-10-12T01:18:36.998Z,78.42
2016-10-12T01:19:36.957Z,78.89
2016-10-12T01:20:36.921Z,78.61
2016-10-12T01:21:36.581Z,78.89
2016-10-12T01:22:36.846Z,78.89
2016-10-12T01:23:36.803Z,79.46
2016-10-12T01:24:36.464Z,79.27
2016-10-12T01:25:36.723Z,79.46
2016-10-12T01:26:36.685Z,78.61
2016-10-12T01:27:36.645Z,79.08
2016-10-12T01:28:36.611Z,78.89
2016-10-12T01:29:36.567Z,78.8
2016-10-12T01:30:36.527Z,78.99
2016-10-12T01:31:36.489Z,78.8
2016-10-12T01:32:36.449Z,78.99
2016-10-12T01:33:36.410Z,78.99
2016-10-12T01:34:36.378Z,78.8
2016-10-12T01:35:36.330Z,78.8
2016-10-12T01:36:35.992Z,78.99
2016-10-12T01:37:36.258Z,78.99
2016-10-12T01:38:36.215Z,78.89
2016-10-12T01:39:36.175Z,79.36
2016-10-12T01:40:36.139Z,78.89
2016-10-12T01:41:36.098Z,79.08
2016-10-12T01:42:35.756Z,79.36
2016-10-12T01:43:36.023Z,79.36
2016-10-12T01:44:35.984Z,79.84
2016-10-12T01:45:35.943Z,79.55
2016-10-12T01:46:35.903Z,80.03
2016-10-12T01:47:35.865Z,79.65
2016-10-12T01:48:35.824Z,80.03
2016-10-12T01:49:35.787Z,80.51
2016-10-12T01:50:35.746Z,80.41
2016-10-12T01:51:35.709Z,80.03
2016-10-12T01:52:35.673Z,80.22
2016-10-12T01:53:35.630Z,80.13
2016-10-12T01:54:35.591Z,80.13
2016-10-12T01:55:35.553Z,80.13
2016-10-12T01:56:35.513Z,80.03
2016-10-12T01:57:35.169Z,79.94
2016-10-12T01:58:35.434Z,79.94
2016-10-12T01:59:35.391Z,80.03
2016-10-12T02:00:35.357Z,80.03
2016-10-12T02:01:35.317Z,80.03
2016-10-12T02:02:35.275Z,80.32
2016-10-12T02:03:35.237Z,80.41
2016-10-12T02:04:35.197Z,80.41
2016-10-12T02:05:35.161Z,80.22
2016-10-12T02:06:35.123Z,80.03
2016-10-12T02:07:35.089Z,80.51
2016-10-12T02:08:35.043Z,80.88
2016-10-12T02:09:35.002Z,80.79
2016-10-12T02:10:34.963Z,80.98
2016-10-12T02:11:34.622Z,80.69
2016-10-12T02:12:34.887Z,80.98
2016-10-12T02:13:34.845Z,80.98
2016-10-12T02:14:34.806Z,80.88
2016-10-12T02:15:34.765Z,80.98
2016-10-12T02:16:34.723Z,80.79
2016-10-12T02:17:34.686Z,80.69
2016-10-12T02:18:34.647Z,81.45
2016-10-12T02:19:34.610Z,81.26
2016-10-12T02:20:34.269Z,81.26
2016-10-12T02:21:34.529Z,81.55
2016-10-12T02:22:34.491Z,81.36
2016-10-12T02:23:34.453Z,81.45
2016-10-12T02:24:34.435Z,81.45
2016-10-12T02:25:34.373Z,81.26
2016-10-12T02:26:34.331Z,81.84
2016-10-12T02:27:34.294Z,81.93
2016-10-12T02:28:34.253Z,81.65
2016-10-12T02:29:34.219Z,81.55
2016-10-12T02:30:34.176Z,81.65
2016-10-12T02:31:34.136Z,81.74
2016-10-12T02:32:34.096Z,81.93
2016-10-12T02:33:34.065Z,81.45
2016-10-12T02:34:34.017Z,81.45
2016-10-12T02:35:33.981Z,81.93
2016-10-12T02:36:33.938Z,81.93
2016-10-12T02:37:33.917Z,81.74
2016-10-12T02:38:33.866Z,81.74
2016-10-12T02:39:33.822Z,81.45
2016-10-12T02:40:33.781Z,82.31
2016-10-12T02:41:33.746Z,82.31
2016-10-12T02:42:33.407Z,82.03
2016-10-12T02:43:33.362Z,81.93
2016-10-12T02:44:33.622Z,82.03
2016-10-12T02:45:33.591Z,82.21
2016-10-12T02:46:33.548Z,82.21
2016-10-12T02:47:33.509Z,82.69
2016-10-12T02:48:33.467Z,82.31
2016-10-12T02:49:33.435Z,82.21
2016-10-12T02:50:33.387Z,82.31
2016-10-12T02:51:33.349Z,82.78
2016-10-12T02:52:33.312Z,82.03
2016-10-12T02:53:33.273Z,82.12
2016-10-12T02:54:33.233Z,82.31
2016-10-12T02:55:33.193Z,81.45
2016-10-12T02:56:33.162Z,82.12
2016-10-12T02:57:33.117Z,82.21
2016-10-12T02:58:33.074Z,82.03
2016-10-12T02:59:33.041Z,82.03
2016-10-12T03:00:32.995Z,82.12
2016-10-12T03:01:32.957Z,82.31
2016-10-12T03:02:32.920Z,81.88
2016-10-12T03:03:32.881Z,82.03
2016-10-12T03:04:32.843Z,82.12
2016-10-12T03:05:32.504Z,81.88
2016-10-12T03:06:32.761Z,81.98
2016-10-12T03:07:32.726Z,82.12
2016-10-12T03:08:32.682Z,81.88
2016-10-12T03:09:32.643Z,82.17
2016-10-12T03:10:32.603Z,82.17
2016-10-12T03:11:32.565Z,82.27
2016-10-12T03:12:32.527Z,82.08
2016-10-12T03:13:32.486Z,82.17
2016-10-12T03:14:32.446Z,81.98
2016-10-12T03:15:32.407Z,82.36
2016-10-12T03:16:32.371Z,82.08
2016-10-12T03:17:32.027Z,81.7
2016-10-12T03:18:32.288Z,81.79
2016-10-12T03:19:32.251Z,81.51
2016-10-12T03:20:31.924Z,81.6
2016-10-12T03:21:32.175Z,81.93
2016-10-12T03:22:32.133Z,81.88
2016-10-12T03:23:31.792Z,82.17
2016-10-12T03:24:32.055Z,82.08
2016-10-12T03:25:32.014Z,82.12
2016-10-12T03:26:31.976Z,82.78
2016-10-12T03:27:31.939Z,82.46
2016-10-12T03:28:31.901Z,82.27
2016-10-12T03:29:31.861Z,82.17
2016-10-12T03:30:31.817Z,82.17
2016-10-12T03:31:31.779Z,82.46
2016-10-12T03:32:31.741Z,82.84
2016-10-12T03:33:31.701Z,82.27
2016-10-12T03:34:31.358Z,82.69
2016-10-12T03:35:31.622Z,83.07
2016-10-12T03:36:31.582Z,83.45
2016-10-12T03:37:31.545Z,83.26
2016-10-12T03:38:31.506Z,83.31
2016-10-12T03:39:31.465Z,83.12
2016-10-12T03:40:31.427Z,83.22
2016-10-12T03:41:31.384Z,83.22
2016-10-12T03:42:31.347Z,82.93
2016-10-12T03:43:31.307Z,82.93
2016-10-12T03:44:31.265Z,83.12
2016-10-12T03:45:31.228Z,82.93
2016-10-12T03:46:31.189Z,83.36
2016-10-12T03:47:31.149Z,83.36
2016-10-12T03:48:31.120Z,83.12
2016-10-12T03:49:31.070Z,82.84
2016-10-12T03:50:31.033Z,82.88
2016-10-12T03:51:30.993Z,82.84
2016-10-12T03:52:30.952Z,83.16
2016-10-12T03:53:30.921Z,83.03
2016-10-12T03:54:30.880Z,82.55
2016-10-12T03:55:30.834Z,82.46
2016-10-12T03:56:30.796Z,82.55
2016-10-12T03:57:30.755Z,82.65
2016-10-12T03:58:30.724Z,83.03
2016-10-12T03:59:30.679Z,83.12
2016-10-12T04:00:30.644Z,82.93
2016-10-12T04:01:30.300Z,82.84
2016-10-12T04:02:30.563Z,83.12
2016-10-12T04:03:30.520Z,83.22
2016-10-12T04:04:30.501Z,82.93
2016-10-12T04:05:30.146Z,83.5
2016-10-12T04:06:30.098Z,83.59
2016-10-12T04:07:30.365Z,83.12
2016-10-12T04:08:30.333Z,84.07
2016-10-12T04:09:30.283Z,83.88
2016-10-12T04:10:30.247Z,83.69
2016-10-12T04:11:30.206Z,83.88
2016-10-12T04:12:30.169Z,83.78
2016-10-12T04:13:30.126Z,84.07
2016-10-12T04:14:30.086Z,83.88
2016-10-12T04:15:30.053Z,83.97
2016-10-12T04:16:30.007Z,83.97
2016-10-12T04:17:29.973Z,83.88
2016-10-12T04:18:29.928Z,83.78
2016-10-12T04:19:29.588Z,84.17
2016-10-12T04:20:29.850Z,83.78
2016-10-12T04:21:29.814Z,83.97
2016-10-12T04:22:29.773Z,83.97
2016-10-12T04:23:29.732Z,84.07
2016-10-12T04:24:29.692Z,83.78
2016-10-12T04:25:29.353Z,83.69
2016-10-12T04:26:29.612Z,84.26
2016-10-12T04:27:29.576Z,83.97
2016-10-12T04:28:29.534Z,83.59
2016-10-12T04:29:29.495Z,84.45
2016-10-12T04:30:29.461Z,83.59
2016-10-12T04:31:29.420Z,83.31
2016-10-12T04:32:29.380Z,83.69
2016-10-12T04:33:29.339Z,84.36
2016-10-12T04:34:29.298Z,84.17
2016-10-12T04:35:28.957Z,84.17
2016-10-12T04:36:29.219Z,84.26
2016-10-12T04:37:29.190Z,84.17
2016-10-12T04:38:29.139Z,84.45
2016-10-12T04:39:29.100Z,84.55
2016-10-12T04:40:29.063Z,85.02
2016-10-12T04:41:29.021Z,85.02
2016-10-12T04:42:28.982Z,85.02
2016-10-12T04:43:28.949Z,84.92
2016-10-12T04:44:28.602Z,85.02
2016-10-12T04:45:28.867Z,84.83
2016-10-12T04:46:28.524Z,84.92
2016-10-12T04:47:28.784Z,85.02
2016-10-12T04:48:28.745Z,85.02
2016-10-12T04:49:28.707Z,85.21
2016-10-12T04:50:28.669Z,85.4
2016-10-12T04:51:28.625Z,85.4
2016-10-12T04:52:28.589Z,85.17
2016-10-12T04:53:28.243Z,85.4
2016-10-12T04:54:28.207Z,85.36
2016-10-12T04:55:28.466Z,85.45
2016-10-12T04:56:28.430Z,85.64
2016-10-12T04:57:28.386Z,85.83
2016-10-12T04:58:28.043Z,86.3
2016-10-12T04:59:28.314Z,86.11
2016-10-12T05:00:27.968Z,86.02
2016-10-12T05:01:28.228Z,86.21
2016-10-12T05:02:28.185Z,86.3
2016-10-12T05:03:28.150Z,87.06
2016-10-12T05:04:28.112Z,86.59
2016-10-12T05:05:27.765Z,86.97
2016-10-12T05:06:28.030Z,86.87
2016-10-12T05:07:27.688Z,87.06
2016-10-12T05:08:27.951Z,87.12
2016-10-12T05:09:27.910Z,87.02
2016-10-12T05:10:27.868Z,87.21
2016-10-12T05:11:27.831Z,87.77
2016-10-12T05:12:27.790Z,87.3
2016-10-12T05:13:27.745Z,88.25
2016-10-12T05:14:27.709Z,88.16
2016-10-12T05:15:27.668Z,88.25
2016-10-12T05:16:27.627Z,88.54
2016-10-12T05:17:27.586Z,88.73
2016-10-12T05:18:27.551Z,88.73
2016-10-12T05:19:27.510Z,89.01
2016-10-12T05:20:27.468Z,88.82
2016-10-12T05:21:27.426Z,88.92
2016-10-12T05:22:27.083Z,89.39
2016-10-12T05:23:27.349Z,89.39
2016-10-12T05:24:27.003Z,89.48
2016-10-12T05:25:27.274Z,89.58
2016-10-12T05:26:26.924Z,89.58
2016-10-12T05:27:27.184Z,90.15
2016-10-12T05:28:27.147Z,90.15
2016-10-12T05:29:26.809Z,89.67
2016-10-12T05:30:27.065Z,90.05
2016-10-12T05:31:27.027Z,90.05
2016-10-12T05:32:26.680Z,89.96
2016-10-12T05:33:26.961Z,89.96
2016-10-12T05:34:26.905Z,89.86
2016-10-12T05:35:26.865Z,90.05
2016-10-12T05:36:26.825Z,89.96
2016-10-12T05:37:26.481Z,89.77
2016-10-12T05:38:26.745Z,89.77
2016-10-12T05:39:26.703Z,89.86
2016-10-12T05:40:26.363Z,89.77
2016-10-12T05:41:26.321Z,90.34
2016-10-12T05:42:26.581Z,90.24
2016-10-12T05:43:26.544Z,90.43
2016-10-12T05:44:26.502Z,90.39
2016-10-12T05:45:26.166Z,90.24
2016-10-12T05:46:26.422Z,90.15
2016-10-12T05:47:26.382Z,90.24
2016-10-12T05:48:26.338Z,90.43
2016-10-12T05:49:26.299Z,90.72
2016-10-12T05:50:26.259Z,90.24
2016-10-12T05:51:26.227Z,90.62
2016-10-12T05:52:26.211Z,90.72
2016-10-12T05:53:26.137Z,90.53
2016-10-12T05:54:26.098Z,90.43
2016-10-12T05:55:26.058Z,90.43
2016-10-12T05:56:26.017Z,90.24
2016-10-12T05:57:25.979Z,90.43
2016-10-12T05:58:25.942Z,90.29
2016-10-12T05:59:25.894Z,90.72
2016-10-12T06:00:25.870Z,90.81
2016-10-12T06:01:25.809Z,90.62
2016-10-12T06:02:25.774Z,91
2016-10-12T06:03:25.740Z,91.09
2016-10-12T06:04:25.689Z,90.81
2016-10-12T06:05:25.352Z,90.53
2016-10-12T06:06:25.613Z,90.72
2016-10-12T06:07:25.272Z,90.91
2016-10-12T06:08:25.531Z,90.24
2016-10-12T06:09:25.491Z,90.67
2016-10-12T06:10:25.149Z,89.91
2016-10-12T06:11:25.410Z,88.87
2016-10-12T06:12:25.069Z,88.48
2016-10-12T06:13:25.338Z,88.24
2016-10-12T06:14:25.291Z,87.3
2016-10-12T06:15:25.247Z,86.07
2016-10-12T06:16:25.213Z,85.44
2016-10-12T06:17:25.173Z,84.01
2016-10-12T06:18:25.134Z,83.78
2016-10-12T06:19:25.090Z,82.92
2016-10-12T06:20:25.051Z,81.68
2016-10-12T06:21:25.012Z,80.83
2016-10-12T06:22:24.970Z,80.64
2016-10-12T06:23:24.933Z,80.11
2016-10-12T06:24:24.591Z,78.97
2016-10-12T06:25:24.550Z,77.92
2016-10-12T06:26:24.512Z,77.11
2016-10-12T06:27:24.776Z,76.16
2016-10-12T06:28:24.742Z,75.3
2016-10-12T06:29:24.393Z,73.63
2016-10-12T06:30:24.658Z,72.58
2016-10-12T06:31:24.619Z,71.72
2016-10-12T06:32:24.585Z,70.81
2016-10-12T06:33:24.543Z,69.6
2016-10-12T06:34:24.504Z,68.37
2016-10-12T06:35:24.470Z,67.07
2016-10-12T06:36:24.431Z,65.45
2016-10-12T06:37:24.392Z,64.62
2016-10-12T06:38:24.356Z,63.8
2016-10-12T06:39:24.315Z,62.18
2016-10-12T06:40:24.283Z,60.39
2016-10-12T06:41:24.243Z,59.19
2016-10-12T06:42:24.201Z,58.04
2016-10-12T06:43:23.867Z,57.18
2016-10-12T06:44:24.132Z,55.11
2016-10-12T06:45:24.096Z,53.67
2016-10-12T06:46:24.075Z,53.39
2016-10-12T06:47:23.721Z,52.55
2016-10-12T06:48:23.685Z,51.31
2016-10-12T06:49:23.650Z,50.64
2016-10-12T06:50:23.916Z,50.84
2016-10-12T06:51:23.882Z,50.09
2016-10-12T06:52:23.843Z,49.52
2016-10-12T06:53:23.810Z,48.39
2016-10-12T06:54:23.775Z,47.47
2016-10-12T06:55:23.740Z,45.65
2016-10-12T06:56:23.707Z,45.55
2016-10-12T06:57:23.370Z,44.43
2016-10-12T06:58:23.335Z,44.73
2016-10-12T06:59:23.602Z,43.49
2016-10-12T07:00:23.268Z,42.91
2016-10-12T07:01:23.534Z,42.17
2016-10-12T07:02:23.502Z,41.31
2016-10-12T07:03:23.472Z,41.23
2016-10-12T07:04:23.440Z,40.27
2016-10-12T07:05:23.403Z,40.08
2016-10-12T07:06:23.371Z,39.89
2016-10-12T07:07:23.339Z,39.23
2016-10-12T07:08:23.003Z,38.47
2016-10-12T07:09:23.272Z,38.01
2016-10-12T07:10:23.238Z,37.62
2016-10-12T07:11:22.905Z,37.16
2016-10-12T07:12:23.175Z,36.7
2016-10-12T07:13:22.841Z,35.55
2016-10-12T07:14:23.111Z,34.11
2016-10-12T07:15:23.084Z,34.49
2016-10-12T07:16:22.744Z,34.3
2016-10-12T07:17:23.017Z,34.03
2016-10-12T07:18:22.986Z,33.74
2016-10-12T07:19:22.955Z,33.18
2016-10-12T07:20:22.923Z,32.52
2016-10-12T07:21:22.900Z,31.77
2016-10-12T07:22:22.862Z,31.59
2016-10-12T07:23:22.833Z,30.53
2016-10-12T07:24:22.806Z,30.26
2016-10-12T07:25:22.468Z,30.07
2016-10-12T07:26:22.741Z,29.29
2016-10-12T07:27:22.728Z,28.44
2016-10-12T07:28:22.683Z,28.63
2016-10-12T07:29:22.670Z,28.81
2016-10-12T07:30:22.623Z,28.33
2016-10-12T07:31:22.593Z,27.85
2016-10-12T07:32:22.573Z,28.62
2016-10-12T07:33:22.235Z,28.52
2016-10-12T07:34:22.512Z,27.94
2016-10-12T07:35:22.485Z,27.85
2016-10-12T07:36:22.147Z,27.56
2016-10-12T07:37:22.421Z,27.85
2016-10-12T07:38:22.392Z,27.37
2016-10-12T07:39:22.362Z,26.61
2016-10-12T07:40:22.334Z,26.51
2016-10-12T07:41:22.306Z,26.42
2016-10-12T07:42:22.277Z,26.23
2016-10-12T07:43:22.247Z,25.95
2016-10-12T07:44:22.217Z,25.38
2016-10-12T07:45:22.189Z,24.9
2016-10-12T07:46:22.213Z,24.23
2016-10-12T07:47:22.134Z,24.62
2016-10-12T07:48:22.101Z,24.72
2016-10-12T07:49:22.075Z,24.41
2016-10-12T07:50:22.053Z,24.9
2016-10-12T07:51:21.717Z,24.41
2016-10-12T07:52:21.988Z,24.9
2016-10-12T07:53:21.959Z,24.62
2016-10-12T07:54:21.961Z,24.43
2016-10-12T07:55:21.902Z,24.43
2016-10-12T07:56:21.877Z,24.41
2016-10-12T07:57:21.543Z,24.8
2016-10-12T07:58:21.816Z,24.69
2016-10-12T07:59:21.789Z,25.45
2016-10-12T08:00:21.460Z,26.39
2016-10-12T08:01:21.735Z,26.97
2016-10-12T08:02:21.707Z,28.11
2016-10-12T08:03:21.375Z,28.77
2016-10-12T08:04:21.658Z,29.14
2016-10-12T08:05:21.617Z,29.24
2016-10-12T08:06:21.589Z,29.61
2016-10-12T08:07:21.562Z,30.08
2016-10-12T08:08:21.530Z,29.99
2016-10-12T08:09:21.504Z,28.75
2016-10-12T08:10:21.173Z,28.77
2016-10-12T08:11:21.447Z,28.19
2016-10-12T08:12:21.421Z,27.81
2016-10-12T08:13:21.393Z,27.34
2016-10-12T08:14:21.362Z,26.97
2016-10-12T08:15:21.332Z,26.78
2016-10-12T08:16:21.304Z,26.39
2016-10-12T08:17:21.281Z,25.92
2016-10-12T08:18:21.252Z,25.26
2016-10-12T08:19:20.919Z,24.88
2016-10-12T08:20:20.890Z,24.79
2016-10-12T08:21:21.166Z,24.41
2016-10-12T08:22:21.142Z,23.83
2016-10-12T08:23:21.111Z,23.46
2016-10-12T08:24:21.091Z,22.98
2016-10-12T08:25:21.055Z,22.98
2016-10-12T08:26:21.028Z,23.27
2016-10-12T08:27:21.002Z,23.17
2016-10-12T08:28:20.975Z,23.25
2016-10-12T08:29:20.946Z,22.5
2016-10-12T08:30:20.920Z,22.3
2016-10-12T08:31:20.588Z,22.22
2016-10-12T08:32:20.866Z,22.31
2016-10-12T08:33:20.839Z,21.94
2016-10-12T08:34:20.812Z,21.35
2016-10-12T08:35:20.484Z,21.36
2016-10-12T08:36:20.459Z,21.27
2016-10-12T08:37:20.734Z,21.84
2016-10-12T08:38:20.707Z,21.65
2016-10-12T08:39:20.379Z,21.92
2016-10-12T08:40:20.657Z,21.44
2016-10-12T08:41:20.628Z,21.26
2016-10-12T08:42:20.599Z,21.55
2016-10-12T08:43:20.574Z,21.26
2016-10-12T08:44:20.250Z,20.79
2016-10-12T08:45:20.522Z,20.61
2016-10-12T08:46:20.494Z,20.32
2016-10-12T08:47:20.471Z,19.27
2016-10-12T08:48:20.140Z,18.69
2016-10-12T08:49:20.417Z,18.99
2016-10-12T08:50:20.393Z,18.13
2016-10-12T08:51:20.367Z,17.74
2016-10-12T08:52:20.342Z,16.69
2016-10-12T08:53:20.316Z,16.78
2016-10-12T08:54:20.295Z,16.39
2016-10-12T08:55:20.266Z,16.11
2016-10-12T08:56:20.241Z,16.59
2016-10-12T08:57:20.215Z,16.87
2016-10-12T08:58:19.923Z,17.36
2016-10-12T08:59:20.170Z,16.78
2016-10-12T09:00:20.144Z,16.41
2016-10-12T09:01:20.117Z,16.12
2016-10-12T09:02:20.092Z,15.44
2016-10-12T09:03:20.068Z,15.82
2016-10-12T09:04:20.042Z,15.44
2016-10-12T09:05:20.019Z,15.73
2016-10-12T09:06:19.993Z,15.64
2016-10-12T09:07:19.665Z,15.73
2016-10-12T09:08:19.945Z,15.55
2016-10-12T09:09:19.919Z,14.87
2016-10-12T09:10:19.894Z,14.58
2016-10-12T09:11:19.873Z,14.29
2016-10-12T09:12:19.847Z,14.31
2016-10-12T09:13:19.824Z,14.03
2016-10-12T09:14:19.799Z,13.54
2016-10-12T09:15:19.774Z,12.66
2016-10-12T09:16:19.757Z,12.96
2016-10-12T09:17:19.732Z,12.96
2016-10-12T09:18:19.402Z,12.76
2016-10-12T09:19:19.684Z,12.49
2016-10-12T09:20:19.656Z,12.49
2016-10-12T09:21:19.636Z,12.1
2016-10-12T09:22:19.309Z,12.57
2016-10-12T09:23:19.591Z,12.66
2016-10-12T09:24:19.566Z,12.47
2016-10-12T09:25:19.543Z,13.04
2016-10-12T09:26:19.219Z,13.13
2016-10-12T09:27:19.500Z,12.84
2016-10-12T09:28:19.473Z,13.23
2016-10-12T09:29:19.448Z,12.85
2016-10-12T09:30:19.121Z,12.74
2016-10-12T09:31:19.406Z,13.13
2016-10-12T09:32:19.079Z,13.52
2016-10-12T09:33:19.360Z,13.13
2016-10-12T09:34:19.335Z,13.13
2016-10-12T09:35:19.319Z,12.55
2016-10-12T09:36:19.289Z,12.74
2016-10-12T09:37:19.270Z,12.93
2016-10-12T09:38:18.940Z,13.52
2016-10-12T09:39:19.219Z,13.22
2016-10-12T09:40:19.198Z,13.32
2016-10-12T09:41:18.872Z,13.79
2016-10-12T09:42:19.152Z,14.18
2016-10-12T09:43:19.130Z,15.24
2016-10-12T09:44:19.103Z,15.52
2016-10-12T09:45:18.779Z,15.31
2016-10-12T09:46:19.062Z,15.42
2016-10-12T09:47:18.732Z,15.12
2016-10-12T09:48:19.014Z,15.22
2016-10-12T09:49:18.987Z,15.52
2016-10-12T09:50:18.966Z,15.51
2016-10-12T09:51:18.941Z,15.52
2016-10-12T09:52:18.918Z,15.12
2016-10-12T09:53:18.892Z,15.32
2016-10-12T09:54:18.568Z,15.71
2016-10-12T09:55:18.849Z,15.42
2016-10-12T09:56:18.519Z,15.23
2016-10-12T09:57:18.800Z,14.37
2016-10-12T09:58:18.776Z,14.56
2016-10-12T09:59:18.752Z,14.84
2016-10-12T10:00:18.730Z,15.33
2016-10-12T10:01:18.701Z,15.42
2016-10-12T10:02:18.679Z,15.14
2016-10-12T10:03:18.656Z,14.28
2016-10-12T10:04:18.632Z,14.29
2016-10-12T10:05:18.308Z,13.52
2016-10-12T10:06:18.584Z,13.03
2016-10-12T10:07:18.558Z,13.02
2016-10-12T10:08:18.237Z,13.02
2016-10-12T10:09:18.515Z,13.7
2016-10-12T10:10:18.188Z,13.79
2016-10-12T10:11:18.165Z,14.08
2016-10-12T10:12:18.443Z,15.14
2016-10-12T10:13:18.424Z,16.28
2016-10-12T10:14:18.396Z,17.22
2016-10-12T10:15:18.370Z,17.22
2016-10-12T10:16:18.043Z,16.35
2016-10-12T10:17:18.020Z,16.74
2016-10-12T10:18:18.299Z,16.64
2016-10-12T10:19:18.274Z,16.64
2016-10-12T10:20:18.253Z,17.71
2016-10-12T10:21:18.232Z,18.66
2016-10-12T10:22:18.202Z,19.8
2016-10-12T10:23:18.174Z,20.28
2016-10-12T10:24:17.850Z,20.47
2016-10-12T10:25:18.125Z,19.89
2016-10-12T10:26:18.101Z,18.94
2016-10-12T10:27:17.770Z,18.37
2016-10-12T10:28:17.746Z,17.8
2016-10-12T10:29:17.725Z,18.01
2016-10-12T10:30:17.999Z,17.91
2016-10-12T10:31:17.975Z,18.49
2016-10-12T10:32:17.946Z,19.92
2016-10-12T10:33:17.920Z,20.57
2016-10-12T10:34:17.896Z,20.86
2016-10-12T10:35:17.869Z,20.19
2016-10-12T10:36:17.841Z,20.01
2016-10-12T10:37:17.819Z,20.2
2016-10-12T10:38:17.789Z,19.62
2016-10-12T10:39:17.764Z,19.24
2016-10-12T10:40:17.736Z,19.73
2016-10-12T10:41:17.712Z,20.49
2016-10-12T10:42:17.686Z,20.57
2016-10-12T10:43:17.666Z,19.52
2016-10-12T10:44:17.632Z,20.95
2016-10-12T10:45:17.606Z,21.99
2016-10-12T10:46:17.585Z,21.99
2016-10-12T10:47:17.553Z,22.28
2016-10-12T10:48:17.533Z,21.89
2016-10-12T10:49:17.504Z,21.41
2016-10-12T10:50:17.478Z,21.41
2016-10-12T10:51:17.461Z,21.41
2016-10-12T10:52:17.430Z,21.62
2016-10-12T10:53:17.115Z,21.04
2016-10-12T10:54:17.376Z,21.52
2016-10-12T10:55:17.353Z,22.46
2016-10-12T10:56:17.323Z,23.79
2016-10-12T10:57:17.301Z,24.66
2016-10-12T10:58:16.971Z,25.69
2016-10-12T10:59:17.259Z,26.36
2016-10-12T11:00:17.220Z,27.12
2016-10-12T11:01:17.194Z,27.97
2016-10-12T11:02:17.166Z,28.92
2016-10-12T11:03:17.140Z,29.75
2016-10-12T11:04:17.114Z,30.6
2016-10-12T11:05:16.784Z,31.35
2016-10-12T11:06:17.056Z,31.15
2016-10-12T11:07:16.725Z,31.07
2016-10-12T11:08:16.997Z,30.6
2016-10-12T11:09:16.971Z,30.04
2016-10-12T11:10:16.640Z,29.86
2016-10-12T11:11:16.923Z,29.67
2016-10-12T11:12:16.887Z,28.91
2016-10-12T11:13:16.863Z,29.02
2016-10-12T11:14:16.827Z,29.96
2016-10-12T11:15:16.799Z,30.14
2016-10-12T11:16:16.791Z,30.79
2016-10-12T11:17:16.439Z,30.89
2016-10-12T11:18:16.708Z,31.18
2016-10-12T11:19:16.681Z,31.46
2016-10-12T11:20:16.653Z,31.46
2016-10-12T11:21:16.621Z,31.46
2016-10-12T11:22:16.592Z,31.66
2016-10-12T11:23:16.562Z,31.74
2016-10-12T11:24:16.541Z,32.31
2016-10-12T11:25:16.502Z,32.52
2016-10-12T11:26:16.472Z,32.7
2016-10-12T11:27:16.446Z,33.17
2016-10-12T11:28:16.410Z,33.92
2016-10-12T11:29:16.384Z,34.48
2016-10-12T11:30:16.359Z,35.16
2016-10-12T11:31:16.322Z,35.73
2016-10-12T11:32:16.293Z,35.92
2016-10-12T11:33:15.957Z,36.4
2016-10-12T11:34:16.228Z,36.47
2016-10-12T11:35:15.898Z,36.77
2016-10-12T11:36:16.168Z,36.96
2016-10-12T11:37:15.831Z,36.96
2016-10-12T11:38:16.114Z,37.34
2016-10-12T11:39:16.075Z,38.09
2016-10-12T11:40:16.041Z,38.18
2016-10-12T11:41:16.010Z,38.28
2016-10-12T11:42:15.979Z,38.28
2016-10-12T11:43:15.947Z,38.37
2016-10-12T11:44:15.918Z,38.45
2016-10-12T11:45:15.884Z,38.64
2016-10-12T11:46:15.852Z,38.47
2016-10-12T11:47:15.820Z,38.66
2016-10-12T11:48:15.788Z,38.85
2016-10-12T11:49:15.756Z,38.56
2016-10-12T11:50:15.724Z,38.56
2016-10-12T11:51:15.694Z,38.95
2016-10-12T11:52:15.659Z,39.03
2016-10-12T11:53:15.627Z,39.98
2016-10-12T11:54:15.610Z,40.17
2016-10-12T11:55:15.259Z,40.82
2016-10-12T11:56:15.529Z,41.3
2016-10-12T11:57:15.500Z,41.68
2016-10-12T11:58:15.463Z,41.3
2016-10-12T11:59:15.431Z,41.87
2016-10-12T12:00:15.399Z,41.68
2016-10-12T12:01:15.063Z,41.68
2016-10-12T12:02:15.333Z,41.49
2016-10-12T12:03:15.004Z,41.11
2016-10-12T12:04:15.268Z,41.11
2016-10-12T12:05:15.234Z,40.26
2016-10-12T12:06:15.203Z,39.89
2016-10-12T12:07:15.169Z,39.89
2016-10-12T12:08:15.138Z,39.89
2016-10-12T12:09:15.103Z,40
2016-10-12T12:10:14.766Z,40.09
2016-10-12T12:11:15.038Z,40.67
2016-10-12T12:12:15.002Z,40.09
2016-10-12T12:13:14.971Z,38.83
2016-10-12T12:14:14.937Z,38.07
2016-10-12T12:15:14.904Z,38.05
2016-10-12T12:16:14.875Z,39
2016-10-12T12:17:14.840Z,39.75
2016-10-12T12:18:14.806Z,40.59
2016-10-12T12:19:14.774Z,41.26
2016-10-12T12:20:14.740Z,41.55
2016-10-12T12:21:14.401Z,42.1
2016-10-12T12:22:14.669Z,42.19
2016-10-12T12:23:14.639Z,42.57
2016-10-12T12:24:14.603Z,42.48
2016-10-12T12:25:14.268Z,42.57
2016-10-12T12:26:14.541Z,42.02
2016-10-12T12:27:14.202Z,42.11
2016-10-12T12:28:14.468Z,41.55
2016-10-12T12:29:14.435Z,40.7
2016-10-12T12:30:14.406Z,40.23
2016-10-12T12:31:14.075Z,40.06
2016-10-12T12:32:14.352Z,40.25
2016-10-12T12:33:14.301Z,40.25
2016-10-12T12:34:14.266Z,40.15
2016-10-12T12:35:14.232Z,39.86
2016-10-12T12:36:14.201Z,40.61
2016-10-12T12:37:14.166Z,40.23
2016-10-12T12:38:14.132Z,40.8
2016-10-12T12:39:14.102Z,41.35
2016-10-12T12:40:14.064Z,41.16
2016-10-12T12:41:14.032Z,41.06
2016-10-12T12:42:13.693Z,41.16
2016-10-12T12:43:13.974Z,41.55
2016-10-12T12:44:13.928Z,41.55
2016-10-12T12:45:13.897Z,41.47
2016-10-12T12:46:13.858Z,41.66
2016-10-12T12:47:13.827Z,41.18
2016-10-12T12:48:13.793Z,41.18
2016-10-12T12:49:13.763Z,41.01
2016-10-12T12:50:13.732Z,40.63
2016-10-12T12:51:13.692Z,40.15
2016-10-12T12:52:13.658Z,39.86
2016-10-12T12:53:13.627Z,40.15
2016-10-12T12:54:13.593Z,39.86